WetterOnline ( http://www.wetteronline.de )

Wetter aktuell Potsdam

Aktuelles Wetter: Potsdam (100m)

6-stündlich | Neueste Meldungen
Ortszeit Temperatur Wetter
Sa, 16.02. 1:00 5.6° C fast wolkenlos
Fr, 15.02. 19:00 9.1° C leicht bewölkt
Fr, 15.02. 13:00 11.9° C leicht bewölkt
Fr, 15.02. 7:00 1.3° C wolkenlos
Fr, 15.02. 1:00 2.9° C wolkenlos
Do, 14.02. 19:00 6.4° C wolkenlos
Do, 14.02. 13:00 9.7° C fast wolkenlos
Do, 14.02. 7:00 5.9° C bedeckt
Ortszeit Temperatur Wetter
Sa, 16.02. 4:00 4.4° C fast wolkenlos
Sa, 16.02. 3:50 4.4° C wolkenlos
Sa, 16.02. 3:40 4.3° C wolkenlos
Sa, 16.02. 3:30 5.0° C fast wolkenlos
Sa, 16.02. 3:20 5.0° C wolkenlos
Sa, 16.02. 3:10 5.3° C wolkenlos
Sa, 16.02. 3:00 5.2° C fast wolkenlos
Sa, 16.02. 2:30 5.3° C fast wolkenlos
Sa, 16.02. 2:00 5.4° C fast wolkenlos
Sa, 16.02. 1:30 5.2° C fast wolkenlos
Sa, 16.02. 1:00 5.6° C fast wolkenlos
Ortszeit Relative Feuchte Sichtweite
Sa, 16.02. 1:00 70% 50 km
Fr, 15.02. 19:00 47% 50 km
Fr, 15.02. 13:00 37% 45 km
Fr, 15.02. 7:00 82% 35 km
Fr, 15.02. 1:00 78% 50 km
Do, 14.02. 19:00 68% 40 km
Do, 14.02. 13:00 61% 30 km
Do, 14.02. 7:00 88% 16 km
Ortszeit Relative Feuchte Sichtweite
Sa, 16.02. 4:00 72% 50 km
Sa, 16.02. 3:50 72% -
Sa, 16.02. 3:40 72% -
Sa, 16.02. 3:30 70% 50 km
Sa, 16.02. 3:20 70% -
Sa, 16.02. 3:10 69% -
Sa, 16.02. 3:00 69% 50 km
Sa, 16.02. 2:30 69% 50 km
Sa, 16.02. 2:00 69% 50 km
Sa, 16.02. 1:30 71% 50 km
Sa, 16.02. 1:00 70% 50 km
Ortszeit Niederschlagsmenge Niederschlagsart
Sa, 16.02. 1:00 0.0 l/m2 in 6 Std. -
Fr, 15.02. 19:00 0.0 l/m2 in 12 Std. -
Fr, 15.02. 13:00 0.0 l/m2 in 6 Std. -
Fr, 15.02. 7:00 0.0 l/m2 in 12 Std. -
Fr, 15.02. 1:00 0.0 l/m2 in 6 Std. -
Do, 14.02. 19:00 0.0 l/m2 in 12 Std. -
Do, 14.02. 13:00 0.0 l/m2 in 6 Std. -
Do, 14.02. 7:00 0.2 l/m2 in 12 Std. -
Ortszeit Niederschlagsmenge Niederschlagsart
Sa, 16.02. 4:00 0.0 l/m2 in 1 Std. -
Sa, 16.02. 3:50 keine Meldung -
Sa, 16.02. 3:40 keine Meldung -
Sa, 16.02. 3:30 0.0 l/m2 in 1 Std. -
Sa, 16.02. 3:20 keine Meldung -
Sa, 16.02. 3:10 keine Meldung -
Sa, 16.02. 3:00 0.0 l/m2 in 1 Std. -
Sa, 16.02. 2:30 0.0 l/m2 in 1 Std. -
Sa, 16.02. 2:00 0.0 l/m2 in 1 Std. -
Sa, 16.02. 1:30 0.0 l/m2 in 1 Std. -
Sa, 16.02. 1:00 0.0 l/m2 in 1 Std. -
Ortszeit Stärke Spitze Richtung
km/h Bft. km/h Grad Sektor
Sa, 16.02. 1:00 19 3 26 190° S
Fr, 15.02. 19:00 14 3 18 180° S
Fr, 15.02. 13:00 11 2 22 260° W
Fr, 15.02. 7:00 13 3 22 250° W
Fr, 15.02. 1:00 14 3 25 250° W
Do, 14.02. 19:00 15 3 24 240° SW
Do, 14.02. 13:00 13 3 24 250° W
Do, 14.02. 7:00 14 3 32 250° W
Ortszeit Stärke Spitze Richtung
km/h Bft. km/h Grad Sektor
Sa, 16.02. 4:00 18 3 29 190° S
Sa, 16.02. 3:50 18 3 - 190° S
Sa, 16.02. 3:40 14 3 - 190° S
Sa, 16.02. 3:30 15 3 30 180° S
Sa, 16.02. 3:20 15 3 - 180° S
Sa, 16.02. 3:10 18 3 - 180° S
Sa, 16.02. 3:00 18 3 29 180° S
Sa, 16.02. 2:30 20 4 30 190° S
Sa, 16.02. 2:00 22 4 29 190° S
Sa, 16.02. 1:30 18 3 29 200° S
Sa, 16.02. 1:00 19 3 26 190° S
Ortszeit Untergrenze Bedeckung Gattung
total tief tief mittel hoch
Sa, 16.02. 1:00 7800 m 1/8 0/8 - - Ci
Fr, 15.02. 19:00 7800 m 2/8 0/8 - - Ci
Fr, 15.02. 13:00 7800 m 3/8 0/8 - - Ci
Fr, 15.02. 7:00 - 0/8 0/8 - - -
Fr, 15.02. 1:00 - 0/8 0/8 - - -
Do, 14.02. 19:00 - 0/8 0/8 - - -
Do, 14.02. 13:00 840 m 1/8 1/8 Cu - -
Do, 14.02. 7:00 600 m 8/8 7/8 Sc - -
Ortszeit Bedeckungsgrad in Achtel und Wolkenuntergrenze
Sa, 16.02. 4:00 1(7800m)
Sa, 16.02. 3:50 keine Wolken
Sa, 16.02. 3:40 keine Wolken
Sa, 16.02. 3:30 1(7800m)
Sa, 16.02. 3:20 keine Wolken
Sa, 16.02. 3:10 keine Wolken
Sa, 16.02. 3:00 1(7800m)
Sa, 16.02. 2:30 1(7800m)
Sa, 16.02. 2:00 1(7800m)
Sa, 16.02. 1:30 1(7800m)
Sa, 16.02. 1:00 1(7800m)
Ortszeit Luftdruck NN (hPa) Tendenz (hPa in 3 Std.)
Sa, 16.02. 1:00 1030 - 1,3
Fr, 15.02. 19:00 1032 - 0,6
Fr, 15.02. 13:00 1034 - 0,6
Fr, 15.02. 7:00 1035 + 0,1
Fr, 15.02. 1:00 1035 + 0,5
Do, 14.02. 19:00 1035 0,0
Do, 14.02. 13:00 1036 - 0,1
Do, 14.02. 7:00 1035 + 0,7
Ortszeit Luftdruck NN (hPa) Tendenz (hPa in 3 Std.)
Sa, 16.02. 4:00 1028 - 1,6
Sa, 16.02. 3:50 1028 keine Meldung
Sa, 16.02. 3:40 1028 keine Meldung
Sa, 16.02. 3:30 1028 - 1,6
Sa, 16.02. 3:20 1028 keine Meldung
Sa, 16.02. 3:10 1028 keine Meldung
Sa, 16.02. 3:00 1029 - 1,5
Sa, 16.02. 2:30 1029 - 1,4
Sa, 16.02. 2:00 1029 - 1,3
Sa, 16.02. 1:30 1030 - 1,4
Sa, 16.02. 1:00 1030 - 1,3
Ortszeit Schneehöhe (cm)
Sa, 16.02. 1:00 0
Fr, 15.02. 19:00 0
Fr, 15.02. 13:00 0
Fr, 15.02. 7:00 0
Fr, 15.02. 1:00 0
Do, 14.02. 19:00 0
Do, 14.02. 13:00 0
Do, 14.02. 7:00 0
Ortszeit Schneehöhe (cm)
Sa, 16.02. 4:00 -
Sa, 16.02. 3:50 -
Sa, 16.02. 3:40 -
Sa, 16.02. 3:30 -
Sa, 16.02. 3:20 -
Sa, 16.02. 3:10 -
Sa, 16.02. 3:00 -
Sa, 16.02. 2:30 -
Sa, 16.02. 2:00 -
Sa, 16.02. 1:30 -
Sa, 16.02. 1:00 0
Link zu dieser Seite / Seite empfehlen

Das Wetter in ...